sensor_id;sensor_type;location;lat;lon;timestamp;P1;durP1;ratioP1;P2;durP2;ratioP2
18576;SDS011;9418;52.694;13.294;2022-10-31T00:01:09;17.30;;;8.00;;
18576;SDS011;9418;52.694;13.294;2022-10-31T00:03:36;13.60;;;8.30;;
18576;SDS011;9418;52.694;13.294;2022-10-31T00:06:03;15.27;;;8.63;;
18576;SDS011;9418;52.694;13.294;2022-10-31T00:08:31;18.30;;;9.13;;
18576;SDS011;9418;52.694;13.294;2022-10-31T00:10:57;14.57;;;9.60;;
18576;SDS011;9418;52.694;13.294;2022-10-31T00:13:24;15.40;;;8.30;;
18576;SDS011;9418;52.694;13.294;2022-10-31T00:15:50;16.07;;;9.00;;
18576;SDS011;9418;52.694;13.294;2022-10-31T00:18:17;19.93;;;9.20;;
18576;SDS011;9418;52.694;13.294;2022-10-31T00:20:43;13.80;;;9.23;;
18576;SDS011;9418;52.694;13.294;2022-10-31T00:23:10;21.00;;;9.00;;
18576;SDS011;9418;52.694;13.294;2022-10-31T00:25:38;21.77;;;9.73;;
18576;SDS011;9418;52.694;13.294;2022-10-31T00:28:06;18.80;;;9.10;;
18576;SDS011;9418;52.694;13.294;2022-10-31T00:30:34;20.80;;;10.30;;
18576;SDS011;9418;52.694;13.294;2022-10-31T00:33:02;12.20;;;9.50;;
18576;SDS011;9418;52.694;13.294;2022-10-31T00:35:29;13.53;;;8.80;;
18576;SDS011;9418;52.694;13.294;2022-10-31T00:37:56;20.10;;;8.80;;
18576;SDS011;9418;52.694;13.294;2022-10-31T00:40:22;16.93;;;9.10;;
18576;SDS011;9418;52.694;13.294;2022-10-31T00:42:50;20.17;;;9.50;;
18576;SDS011;9418;52.694;13.294;2022-10-31T00:45:17;19.27;;;9.80;;
18576;SDS011;9418;52.694;13.294;2022-10-31T00:47:43;16.70;;;9.47;;
18576;SDS011;9418;52.694;13.294;2022-10-31T00:50:10;17.73;;;8.30;;
18576;SDS011;9418;52.694;13.294;2022-10-31T00:52:36;14.23;;;9.60;;
18576;SDS011;9418;52.694;13.294;2022-10-31T00:55:03;15.43;;;8.43;;
18576;SDS011;9418;52.694;13.294;2022-10-31T00:57:30;18.13;;;8.77;;
18576;SDS011;9418;52.694;13.294;2022-10-31T00:59:58;15.67;;;9.50;;
18576;SDS011;9418;52.694;13.294;2022-10-31T01:02:24;11.97;;;8.40;;
18576;SDS011;9418;52.694;13.294;2022-10-31T01:04:51;15.73;;;10.53;;
18576;SDS011;9418;52.694;13.294;2022-10-31T01:07:17;12.83;;;8.03;;
18576;SDS011;9418;52.694;13.294;2022-10-31T01:09:44;22.57;;;8.90;;
18576;SDS011;9418;52.694;13.294;2022-10-31T01:12:10;13.43;;;9.07;;
18576;SDS011;9418;52.694;13.294;2022-10-31T01:14:37;20.73;;;9.00;;
18576;SDS011;9418;52.694;13.294;2022-10-31T01:17:05;21.93;;;9.10;;
18576;SDS011;9418;52.694;13.294;2022-10-31T01:19:32;15.80;;;8.30;;
18576;SDS011;9418;52.694;13.294;2022-10-31T01:21:58;21.70;;;9.63;;
18576;SDS011;9418;52.694;13.294;2022-10-31T01:24:25;17.33;;;9.27;;
18576;SDS011;9418;52.694;13.294;2022-10-31T01:26:51;15.73;;;9.27;;
18576;SDS011;9418;52.694;13.294;2022-10-31T01:29:18;12.80;;;8.77;;
18576;SDS011;9418;52.694;13.294;2022-10-31T01:31:44;14.40;;;9.43;;
18576;SDS011;9418;52.694;13.294;2022-10-31T01:34:13;15.50;;;10.53;;
18576;SDS011;9418;52.694;13.294;2022-10-31T01:36:42;15.70;;;8.83;;
18576;SDS011;9418;52.694;13.294;2022-10-31T01:39:12;11.50;;;8.63;;
18576;SDS011;9418;52.694;13.294;2022-10-31T01:41:42;15.90;;;9.27;;
18576;SDS011;9418;52.694;13.294;2022-10-31T01:47:16;12.70;;;9.37;;
18576;SDS011;9418;52.694;13.294;2022-10-31T01:49:47;15.13;;;9.47;;
18576;SDS011;9418;52.694;13.294;2022-10-31T01:52:18;17.77;;;9.80;;
18576;SDS011;9418;52.694;13.294;2022-10-31T01:54:48;15.17;;;9.90;;
18576;SDS011;9418;52.694;13.294;2022-10-31T01:57:21;23.60;;;10.43;;
18576;SDS011;9418;52.694;13.294;2022-10-31T01:59:48;17.30;;;9.97;;
18576;SDS011;9418;52.694;13.294;2022-10-31T02:02:17;16.47;;;10.63;;
18576;SDS011;9418;52.694;13.294;2022-10-31T02:04:44;13.73;;;10.03;;
18576;SDS011;9418;52.694;13.294;2022-10-31T02:07:14;23.20;;;10.20;;
18576;SDS011;9418;52.694;13.294;2022-10-31T02:09:45;16.77;;;11.10;;
18576;SDS011;9418;52.694;13.294;2022-10-31T02:12:15;19.53;;;10.00;;
18576;SDS011;9418;52.694;13.294;2022-10-31T02:14:43;19.90;;;10.47;;
18576;SDS011;9418;52.694;13.294;2022-10-31T02:17:10;16.23;;;10.60;;
18576;SDS011;9418;52.694;13.294;2022-10-31T02:19:39;14.97;;;9.93;;
18576;SDS011;9418;52.694;13.294;2022-10-31T02:22:29;20.83;;;11.27;;
18576;SDS011;9418;52.694;13.294;2022-10-31T02:25:10;16.97;;;11.00;;
18576;SDS011;9418;52.694;13.294;2022-10-31T02:27:51;17.93;;;10.83;;
18576;SDS011;9418;52.694;13.294;2022-10-31T02:30:41;20.37;;;10.63;;
18576;SDS011;9418;52.694;13.294;2022-10-31T02:33:22;14.17;;;10.00;;
18576;SDS011;9418;52.694;13.294;2022-10-31T02:35:55;12.00;;;9.33;;
18576;SDS011;9418;52.694;13.294;2022-10-31T02:38:31;21.33;;;10.60;;
18576;SDS011;9418;52.694;13.294;2022-10-31T02:41:06;21.60;;;11.07;;
18576;SDS011;9418;52.694;13.294;2022-10-31T02:43:43;18.10;;;11.47;;
18576;SDS011;9418;52.694;13.294;2022-10-31T02:46:17;13.77;;;9.97;;
18576;SDS011;9418;52.694;13.294;2022-10-31T02:48:50;15.90;;;10.77;;
18576;SDS011;9418;52.694;13.294;2022-10-31T02:51:21;19.43;;;10.93;;
18576;SDS011;9418;52.694;13.294;2022-10-31T02:53:47;23.40;;;11.27;;
18576;SDS011;9418;52.694;13.294;2022-10-31T02:56:15;17.73;;;10.87;;
18576;SDS011;9418;52.694;13.294;2022-10-31T02:58:44;17.23;;;11.57;;
18576;SDS011;9418;52.694;13.294;2022-10-31T03:01:26;17.17;;;11.00;;
18576;SDS011;9418;52.694;13.294;2022-10-31T03:04:16;18.47;;;11.13;;
18576;SDS011;9418;52.694;13.294;2022-10-31T03:06:53;16.73;;;10.40;;
18576;SDS011;9418;52.694;13.294;2022-10-31T03:09:27;20.53;;;11.03;;
18576;SDS011;9418;52.694;13.294;2022-10-31T03:12:02;28.63;;;12.13;;
18576;SDS011;9418;52.694;13.294;2022-10-31T03:14:34;16.57;;;11.30;;
18576;SDS011;9418;52.694;13.294;2022-10-31T03:17:09;15.43;;;11.50;;
18576;SDS011;9418;52.694;13.294;2022-10-31T03:19:42;21.93;;;10.30;;
18576;SDS011;9418;52.694;13.294;2022-10-31T03:22:14;18.67;;;11.50;;
18576;SDS011;9418;52.694;13.294;2022-10-31T03:24:42;13.53;;;10.50;;
18576;SDS011;9418;52.694;13.294;2022-10-31T03:27:12;16.20;;;10.67;;
18576;SDS011;9418;52.694;13.294;2022-10-31T03:29:40;17.40;;;11.20;;
18576;SDS011;9418;52.694;13.294;2022-10-31T03:32:12;14.40;;;10.50;;
18576;SDS011;9418;52.694;13.294;2022-10-31T03:34:43;17.43;;;11.30;;
18576;SDS011;9418;52.694;13.294;2022-10-31T03:37:12;22.43;;;12.40;;
18576;SDS011;9418;52.694;13.294;2022-10-31T03:39:42;18.50;;;12.07;;
18576;SDS011;9418;52.694;13.294;2022-10-31T03:42:11;19.87;;;11.77;;
18576;SDS011;9418;52.694;13.294;2022-10-31T03:44:42;23.80;;;13.03;;
18576;SDS011;9418;52.694;13.294;2022-10-31T03:47:14;17.40;;;12.03;;
18576;SDS011;9418;52.694;13.294;2022-10-31T03:49:40;19.40;;;13.00;;
18576;SDS011;9418;52.694;13.294;2022-10-31T03:52:09;19.93;;;12.30;;
18576;SDS011;9418;52.694;13.294;2022-10-31T03:54:45;19.70;;;11.70;;
18576;SDS011;9418;52.694;13.294;2022-10-31T03:57:18;21.03;;;12.17;;
18576;SDS011;9418;52.694;13.294;2022-10-31T03:59:51;21.00;;;12.10;;
18576;SDS011;9418;52.694;13.294;2022-10-31T04:02:22;23.57;;;13.90;;
18576;SDS011;9418;52.694;13.294;2022-10-31T04:04:53;17.00;;;12.10;;
18576;SDS011;9418;52.694;13.294;2022-10-31T04:07:20;24.00;;;13.47;;
18576;SDS011;9418;52.694;13.294;2022-10-31T04:09:51;30.27;;;15.30;;
18576;SDS011;9418;52.694;13.294;2022-10-31T04:12:19;23.90;;;14.57;;
18576;SDS011;9418;52.694;13.294;2022-10-31T04:14:48;18.93;;;13.30;;
18576;SDS011;9418;52.694;13.294;2022-10-31T04:17:17;19.10;;;12.63;;
18576;SDS011;9418;52.694;13.294;2022-10-31T04:19:48;23.90;;;14.60;;
18576;SDS011;9418;52.694;13.294;2022-10-31T04:22:14;23.37;;;13.20;;
18576;SDS011;9418;52.694;13.294;2022-10-31T04:24:41;19.87;;;13.50;;
18576;SDS011;9418;52.694;13.294;2022-10-31T04:27:08;19.03;;;12.83;;
18576;SDS011;9418;52.694;13.294;2022-10-31T04:29:34;19.10;;;12.53;;
18576;SDS011;9418;52.694;13.294;2022-10-31T04:32:01;20.50;;;12.97;;
18576;SDS011;9418;52.694;13.294;2022-10-31T04:34:28;19.17;;;12.40;;
18576;SDS011;9418;52.694;13.294;2022-10-31T04:36:55;24.70;;;15.10;;
18576;SDS011;9418;52.694;13.294;2022-10-31T04:39:22;18.27;;;13.13;;
18576;SDS011;9418;52.694;13.294;2022-10-31T04:41:49;17.53;;;13.00;;
18576;SDS011;9418;52.694;13.294;2022-10-31T04:44:15;26.37;;;13.40;;
18576;SDS011;9418;52.694;13.294;2022-10-31T04:46:42;21.87;;;14.00;;
18576;SDS011;9418;52.694;13.294;2022-10-31T04:49:09;20.23;;;13.20;;
18576;SDS011;9418;52.694;13.294;2022-10-31T04:51:36;21.23;;;13.40;;
18576;SDS011;9418;52.694;13.294;2022-10-31T04:54:04;22.50;;;14.67;;
18576;SDS011;9418;52.694;13.294;2022-10-31T04:56:30;19.20;;;13.30;;
18576;SDS011;9418;52.694;13.294;2022-10-31T04:58:57;20.67;;;14.03;;
18576;SDS011;9418;52.694;13.294;2022-10-31T05:01:24;18.60;;;12.90;;
18576;SDS011;9418;52.694;13.294;2022-10-31T05:03:50;20.80;;;14.47;;
18576;SDS011;9418;52.694;13.294;2022-10-31T05:06:17;21.77;;;14.43;;
18576;SDS011;9418;52.694;13.294;2022-10-31T05:08:43;21.83;;;14.40;;
18576;SDS011;9418;52.694;13.294;2022-10-31T05:11:11;20.23;;;15.00;;
18576;SDS011;9418;52.694;13.294;2022-10-31T05:13:38;21.00;;;14.30;;
18576;SDS011;9418;52.694;13.294;2022-10-31T05:16:05;20.80;;;14.30;;
18576;SDS011;9418;52.694;13.294;2022-10-31T05:18:32;20.03;;;13.10;;
18576;SDS011;9418;52.694;13.294;2022-10-31T05:20:58;20.03;;;15.47;;
18576;SDS011;9418;52.694;13.294;2022-10-31T05:23:25;21.60;;;13.20;;
18576;SDS011;9418;52.694;13.294;2022-10-31T05:25:52;23.43;;;13.47;;
18576;SDS011;9418;52.694;13.294;2022-10-31T05:28:20;17.23;;;13.40;;
18576;SDS011;9418;52.694;13.294;2022-10-31T05:30:46;25.77;;;14.70;;
18576;SDS011;9418;52.694;13.294;2022-10-31T05:33:13;18.40;;;13.40;;
18576;SDS011;9418;52.694;13.294;2022-10-31T05:35:40;26.73;;;16.33;;
18576;SDS011;9418;52.694;13.294;2022-10-31T05:38:06;17.77;;;13.33;;
18576;SDS011;9418;52.694;13.294;2022-10-31T05:40:33;30.10;;;14.63;;
18576;SDS011;9418;52.694;13.294;2022-10-31T05:42:59;25.17;;;13.17;;
18576;SDS011;9418;52.694;13.294;2022-10-31T05:45:27;30.63;;;13.70;;
18576;SDS011;9418;52.694;13.294;2022-10-31T05:47:54;17.63;;;13.07;;
18576;SDS011;9418;52.694;13.294;2022-10-31T05:50:22;21.57;;;13.53;;
18576;SDS011;9418;52.694;13.294;2022-10-31T05:52:54;22.80;;;13.73;;
18576;SDS011;9418;52.694;13.294;2022-10-31T05:55:21;28.13;;;16.23;;
18576;SDS011;9418;52.694;13.294;2022-10-31T05:57:48;34.80;;;14.80;;
18576;SDS011;9418;52.694;13.294;2022-10-31T06:00:14;27.17;;;14.27;;
18576;SDS011;9418;52.694;13.294;2022-10-31T06:02:42;22.63;;;13.70;;
18576;SDS011;9418;52.694;13.294;2022-10-31T06:05:09;22.73;;;13.67;;
18576;SDS011;9418;52.694;13.294;2022-10-31T06:07:36;21.60;;;14.00;;
18576;SDS011;9418;52.694;13.294;2022-10-31T06:10:03;20.23;;;13.03;;
18576;SDS011;9418;52.694;13.294;2022-10-31T06:12:31;14.30;;;12.80;;
18576;SDS011;9418;52.694;13.294;2022-10-31T06:15:02;18.87;;;12.53;;
18576;SDS011;9418;52.694;13.294;2022-10-31T06:17:29;16.20;;;12.70;;
18576;SDS011;9418;52.694;13.294;2022-10-31T06:19:57;20.23;;;12.93;;
18576;SDS011;9418;52.694;13.294;2022-10-31T06:22:24;16.92;;;11.48;;
18576;SDS011;9418;52.694;13.294;2022-10-31T06:24:51;16.83;;;12.90;;
18576;SDS011;9418;52.694;13.294;2022-10-31T06:27:17;21.80;;;12.67;;
18576;SDS011;9418;52.694;13.294;2022-10-31T06:29:44;17.47;;;13.00;;
18576;SDS011;9418;52.694;13.294;2022-10-31T06:32:11;16.70;;;12.63;;
18576;SDS011;9418;52.694;13.294;2022-10-31T06:34:38;17.87;;;12.83;;
18576;SDS011;9418;52.694;13.294;2022-10-31T06:37:07;15.50;;;12.13;;
18576;SDS011;9418;52.694;13.294;2022-10-31T06:39:34;21.13;;;12.33;;
18576;SDS011;9418;52.694;13.294;2022-10-31T06:42:01;22.70;;;12.90;;
18576;SDS011;9418;52.694;13.294;2022-10-31T06:44:28;25.13;;;12.50;;
18576;SDS011;9418;52.694;13.294;2022-10-31T06:46:55;18.10;;;12.30;;
18576;SDS011;9418;52.694;13.294;2022-10-31T06:49:21;22.53;;;13.47;;
18576;SDS011;9418;52.694;13.294;2022-10-31T06:51:48;15.63;;;12.13;;
18576;SDS011;9418;52.694;13.294;2022-10-31T06:54:16;18.30;;;13.13;;
18576;SDS011;9418;52.694;13.294;2022-10-31T06:56:45;18.57;;;12.30;;
18576;SDS011;9418;52.694;13.294;2022-10-31T06:59:12;21.57;;;12.80;;
18576;SDS011;9418;52.694;13.294;2022-10-31T07:01:38;19.53;;;12.97;;
18576;SDS011;9418;52.694;13.294;2022-10-31T07:04:05;17.17;;;12.50;;
18576;SDS011;9418;52.694;13.294;2022-10-31T07:06:31;21.37;;;13.30;;
18576;SDS011;9418;52.694;13.294;2022-10-31T07:08:58;22.40;;;12.60;;
18576;SDS011;9418;52.694;13.294;2022-10-31T07:11:26;16.83;;;13.50;;
18576;SDS011;9418;52.694;13.294;2022-10-31T07:13:52;20.60;;;12.77;;
18576;SDS011;9418;52.694;13.294;2022-10-31T07:16:19;19.63;;;13.40;;
18576;SDS011;9418;52.694;13.294;2022-10-31T07:18:46;20.97;;;13.13;;
18576;SDS011;9418;52.694;13.294;2022-10-31T07:21:12;22.83;;;15.47;;
18576;SDS011;9418;52.694;13.294;2022-10-31T07:23:39;15.60;;;13.10;;
18576;SDS011;9418;52.694;13.294;2022-10-31T07:26:05;23.13;;;14.70;;
18576;SDS011;9418;52.694;13.294;2022-10-31T07:28:35;23.73;;;13.63;;
18576;SDS011;9418;52.694;13.294;2022-10-31T07:31:01;17.70;;;14.10;;
18576;SDS011;9418;52.694;13.294;2022-10-31T07:33:28;22.87;;;14.00;;
18576;SDS011;9418;52.694;13.294;2022-10-31T07:35:54;23.10;;;13.00;;
18576;SDS011;9418;52.694;13.294;2022-10-31T07:38:21;23.00;;;13.10;;
18576;SDS011;9418;52.694;13.294;2022-10-31T07:40:49;26.30;;;13.43;;
18576;SDS011;9418;52.694;13.294;2022-10-31T07:43:18;21.07;;;12.90;;
18576;SDS011;9418;52.694;13.294;2022-10-31T07:45:49;16.97;;;13.17;;
18576;SDS011;9418;52.694;13.294;2022-10-31T07:48:17;18.47;;;12.00;;
18576;SDS011;9418;52.694;13.294;2022-10-31T07:50:43;20.10;;;12.90;;
18576;SDS011;9418;52.694;13.294;2022-10-31T07:53:11;24.03;;;12.20;;
18576;SDS011;9418;52.694;13.294;2022-10-31T07:55:39;18.13;;;12.70;;
18576;SDS011;9418;52.694;13.294;2022-10-31T07:58:06;19.17;;;13.13;;
18576;SDS011;9418;52.694;13.294;2022-10-31T08:00:34;15.60;;;12.07;;
18576;SDS011;9418;52.694;13.294;2022-10-31T08:03:04;24.57;;;12.93;;
18576;SDS011;9418;52.694;13.294;2022-10-31T08:05:32;21.33;;;11.83;;
18576;SDS011;9418;52.694;13.294;2022-10-31T08:07:59;18.07;;;12.80;;
18576;SDS011;9418;52.694;13.294;2022-10-31T08:10:26;26.43;;;13.93;;
18576;SDS011;9418;52.694;13.294;2022-10-31T08:12:56;25.87;;;14.03;;
18576;SDS011;9418;52.694;13.294;2022-10-31T08:15:24;24.23;;;14.37;;
18576;SDS011;9418;52.694;13.294;2022-10-31T08:17:51;22.53;;;13.50;;
18576;SDS011;9418;52.694;13.294;2022-10-31T08:20:19;20.77;;;12.70;;
18576;SDS011;9418;52.694;13.294;2022-10-31T08:22:56;27.57;;;13.13;;
18576;SDS011;9418;52.694;13.294;2022-10-31T08:25:24;21.57;;;14.73;;
18576;SDS011;9418;52.694;13.294;2022-10-31T08:27:52;26.07;;;16.43;;
18576;SDS011;9418;52.694;13.294;2022-10-31T08:30:19;24.20;;;14.23;;
18576;SDS011;9418;52.694;13.294;2022-10-31T08:32:47;35.00;;;16.23;;
18576;SDS011;9418;52.694;13.294;2022-10-31T08:35:25;22.77;;;13.97;;
18576;SDS011;9418;52.694;13.294;2022-10-31T08:37:52;30.43;;;14.57;;
18576;SDS011;9418;52.694;13.294;2022-10-31T08:40:19;21.83;;;15.17;;
18576;SDS011;9418;52.694;13.294;2022-10-31T08:42:46;20.97;;;13.97;;
18576;SDS011;9418;52.694;13.294;2022-10-31T08:45:13;23.00;;;13.97;;
18576;SDS011;9418;52.694;13.294;2022-10-31T08:47:39;20.10;;;14.87;;
18576;SDS011;9418;52.694;13.294;2022-10-31T08:50:06;24.97;;;14.17;;
18576;SDS011;9418;52.694;13.294;2022-10-31T08:52:34;17.10;;;13.33;;
18576;SDS011;9418;52.694;13.294;2022-10-31T08:55:01;22.90;;;16.20;;
18576;SDS011;9418;52.694;13.294;2022-10-31T08:57:27;27.10;;;14.80;;
18576;SDS011;9418;52.694;13.294;2022-10-31T08:59:54;22.23;;;14.60;;
18576;SDS011;9418;52.694;13.294;2022-10-31T09:02:21;23.30;;;15.10;;
18576;SDS011;9418;52.694;13.294;2022-10-31T09:04:47;24.83;;;15.87;;
18576;SDS011;9418;52.694;13.294;2022-10-31T09:07:14;25.57;;;15.70;;
18576;SDS011;9418;52.694;13.294;2022-10-31T09:09:42;22.40;;;14.93;;
18576;SDS011;9418;52.694;13.294;2022-10-31T09:12:08;25.40;;;15.47;;
18576;SDS011;9418;52.694;13.294;2022-10-31T09:14:35;20.10;;;15.10;;
18576;SDS011;9418;52.694;13.294;2022-10-31T09:17:01;25.30;;;16.03;;
18576;SDS011;9418;52.694;13.294;2022-10-31T09:19:28;31.07;;;15.70;;
18576;SDS011;9418;52.694;13.294;2022-10-31T09:21:55;24.40;;;14.80;;
18576;SDS011;9418;52.694;13.294;2022-10-31T09:24:21;32.70;;;17.47;;
18576;SDS011;9418;52.694;13.294;2022-10-31T09:26:49;27.10;;;15.80;;
18576;SDS011;9418;52.694;13.294;2022-10-31T09:29:16;27.20;;;17.43;;
18576;SDS011;9418;52.694;13.294;2022-10-31T09:31:42;30.23;;;18.13;;
18576;SDS011;9418;52.694;13.294;2022-10-31T09:34:09;40.10;;;17.90;;
18576;SDS011;9418;52.694;13.294;2022-10-31T09:36:36;28.83;;;17.43;;
18576;SDS011;9418;52.694;13.294;2022-10-31T09:39:03;25.80;;;17.77;;
18576;SDS011;9418;52.694;13.294;2022-10-31T09:41:31;30.17;;;16.90;;
18576;SDS011;9418;52.694;13.294;2022-10-31T09:44:12;32.17;;;17.47;;
18576;SDS011;9418;52.694;13.294;2022-10-31T09:46:47;27.43;;;15.83;;
18576;SDS011;9418;52.694;13.294;2022-10-31T09:49:25;27.80;;;16.43;;
18576;SDS011;9418;52.694;13.294;2022-10-31T09:52:09;28.67;;;17.00;;
18576;SDS011;9418;52.694;13.294;2022-10-31T09:54:44;26.67;;;17.07;;
18576;SDS011;9418;52.694;13.294;2022-10-31T09:57:15;31.90;;;18.40;;
18576;SDS011;9418;52.694;13.294;2022-10-31T09:59:46;30.30;;;18.30;;
18576;SDS011;9418;52.694;13.294;2022-10-31T10:02:16;40.83;;;15.90;;
18576;SDS011;9418;52.694;13.294;2022-10-31T10:04:48;27.20;;;16.47;;
18576;SDS011;9418;52.694;13.294;2022-10-31T10:07:21;22.93;;;16.30;;
18576;SDS011;9418;52.694;13.294;2022-10-31T10:09:55;30.93;;;17.90;;
18576;SDS011;9418;52.694;13.294;2022-10-31T10:12:25;25.37;;;17.00;;
18576;SDS011;9418;52.694;13.294;2022-10-31T10:15:16;31.80;;;18.00;;
18576;SDS011;9418;52.694;13.294;2022-10-31T10:17:53;27.37;;;18.27;;
18576;SDS011;9418;52.694;13.294;2022-10-31T10:20:30;31.37;;;19.70;;
18576;SDS011;9418;52.694;13.294;2022-10-31T10:23:07;27.47;;;18.70;;
18576;SDS011;9418;52.694;13.294;2022-10-31T10:25:43;28.73;;;16.77;;
18576;SDS011;9418;52.694;13.294;2022-10-31T10:28:16;33.53;;;17.90;;
18576;SDS011;9418;52.694;13.294;2022-10-31T10:30:48;29.33;;;18.00;;
18576;SDS011;9418;52.694;13.294;2022-10-31T10:33:20;28.23;;;18.37;;
18576;SDS011;9418;52.694;13.294;2022-10-31T10:35:50;31.13;;;18.50;;
18576;SDS011;9418;52.694;13.294;2022-10-31T10:38:20;33.00;;;19.27;;
18576;SDS011;9418;52.694;13.294;2022-10-31T10:40:53;33.23;;;18.70;;
18576;SDS011;9418;52.694;13.294;2022-10-31T10:43:21;36.30;;;20.30;;
18576;SDS011;9418;52.694;13.294;2022-10-31T10:45:56;42.07;;;19.13;;
18576;SDS011;9418;52.694;13.294;2022-10-31T10:48:50;26.03;;;17.80;;
18576;SDS011;9418;52.694;13.294;2022-10-31T10:51:21;54.60;;;31.57;;
18576;SDS011;9418;52.694;13.294;2022-10-31T10:53:55;38.07;;;20.03;;
18576;SDS011;9418;52.694;13.294;2022-10-31T10:56:41;35.13;;;21.80;;
18576;SDS011;9418;52.694;13.294;2022-10-31T10:59:15;32.00;;;18.73;;
18576;SDS011;9418;52.694;13.294;2022-10-31T11:01:47;30.37;;;19.17;;
18576;SDS011;9418;52.694;13.294;2022-10-31T11:04:24;32.47;;;20.63;;
18576;SDS011;9418;52.694;13.294;2022-10-31T11:06:59;33.70;;;18.37;;
18576;SDS011;9418;52.694;13.294;2022-10-31T11:09:27;26.70;;;19.33;;
18576;SDS011;9418;52.694;13.294;2022-10-31T11:11:54;31.77;;;19.00;;
18576;SDS011;9418;52.694;13.294;2022-10-31T11:14:22;41.43;;;19.33;;
18576;SDS011;9418;52.694;13.294;2022-10-31T11:16:51;46.97;;;19.50;;
18576;SDS011;9418;52.694;13.294;2022-10-31T11:19:20;28.83;;;17.50;;
18576;SDS011;9418;52.694;13.294;2022-10-31T11:21:50;38.23;;;18.47;;
18576;SDS011;9418;52.694;13.294;2022-10-31T11:24:17;32.20;;;17.97;;
18576;SDS011;9418;52.694;13.294;2022-10-31T11:26:46;29.73;;;20.57;;
18576;SDS011;9418;52.694;13.294;2022-10-31T11:29:15;31.30;;;19.20;;
18576;SDS011;9418;52.694;13.294;2022-10-31T11:31:45;30.60;;;19.83;;
18576;SDS011;9418;52.694;13.294;2022-10-31T11:34:16;27.97;;;18.90;;
18576;SDS011;9418;52.694;13.294;2022-10-31T11:36:54;28.80;;;18.63;;
18576;SDS011;9418;52.694;13.294;2022-10-31T11:39:24;32.40;;;19.87;;
18576;SDS011;9418;52.694;13.294;2022-10-31T11:41:51;28.37;;;19.10;;
18576;SDS011;9418;52.694;13.294;2022-10-31T11:44:20;30.40;;;19.77;;
18576;SDS011;9418;52.694;13.294;2022-10-31T11:46:50;26.37;;;18.73;;
18576;SDS011;9418;52.694;13.294;2022-10-31T11:49:20;40.27;;;20.40;;
18576;SDS011;9418;52.694;13.294;2022-10-31T11:51:53;33.77;;;20.87;;
18576;SDS011;9418;52.694;13.294;2022-10-31T11:54:25;31.73;;;19.97;;
18576;SDS011;9418;52.694;13.294;2022-10-31T11:56:53;25.73;;;19.60;;
18576;SDS011;9418;52.694;13.294;2022-10-31T11:59:22;27.40;;;19.13;;
18576;SDS011;9418;52.694;13.294;2022-10-31T12:01:52;31.13;;;20.43;;
18576;SDS011;9418;52.694;13.294;2022-10-31T12:04:24;32.23;;;19.23;;
18576;SDS011;9418;52.694;13.294;2022-10-31T12:06:57;29.20;;;20.30;;
18576;SDS011;9418;52.694;13.294;2022-10-31T12:09:25;29.63;;;20.53;;
18576;SDS011;9418;52.694;13.294;2022-10-31T12:12:02;31.97;;;19.50;;
18576;SDS011;9418;52.694;13.294;2022-10-31T12:14:42;36.00;;;20.90;;
18576;SDS011;9418;52.694;13.294;2022-10-31T12:17:16;32.57;;;20.30;;
18576;SDS011;9418;52.694;13.294;2022-10-31T12:19:53;33.00;;;20.50;;
18576;SDS011;9418;52.694;13.294;2022-10-31T12:22:31;30.40;;;20.40;;
18576;SDS011;9418;52.694;13.294;2022-10-31T12:25:10;32.17;;;21.43;;
18576;SDS011;9418;52.694;13.294;2022-10-31T12:27:57;28.83;;;20.37;;
18576;SDS011;9418;52.694;13.294;2022-10-31T12:30:38;37.27;;;21.90;;
18576;SDS011;9418;52.694;13.294;2022-10-31T12:33:19;30.83;;;21.83;;
18576;SDS011;9418;52.694;13.294;2022-10-31T12:35:58;37.30;;;22.60;;
18576;SDS011;9418;52.694;13.294;2022-10-31T12:38:41;32.07;;;23.70;;
18576;SDS011;9418;52.694;13.294;2022-10-31T12:41:21;44.57;;;24.40;;
18576;SDS011;9418;52.694;13.294;2022-10-31T12:44:01;40.03;;;24.93;;
18576;SDS011;9418;52.694;13.294;2022-10-31T12:46:36;41.80;;;27.77;;
18576;SDS011;9418;52.694;13.294;2022-10-31T12:49:26;47.60;;;28.93;;
18576;SDS011;9418;52.694;13.294;2022-10-31T12:52:13;50.43;;;27.33;;
18576;SDS011;9418;52.694;13.294;2022-10-31T12:54:56;42.97;;;29.97;;
18576;SDS011;9418;52.694;13.294;2022-10-31T12:57:38;39.50;;;29.13;;
18576;SDS011;9418;52.694;13.294;2022-10-31T13:00:11;39.73;;;28.00;;
18576;SDS011;9418;52.694;13.294;2022-10-31T13:02:41;42.53;;;29.90;;
18576;SDS011;9418;52.694;13.294;2022-10-31T13:05:13;50.23;;;31.10;;
18576;SDS011;9418;52.694;13.294;2022-10-31T13:07:48;51.40;;;31.80;;
18576;SDS011;9418;52.694;13.294;2022-10-31T13:10:21;48.10;;;31.27;;
18576;SDS011;9418;52.694;13.294;2022-10-31T13:12:52;50.47;;;32.30;;
18576;SDS011;9418;52.694;13.294;2022-10-31T13:15:23;53.37;;;33.90;;
18576;SDS011;9418;52.694;13.294;2022-10-31T13:17:53;49.30;;;32.90;;
18576;SDS011;9418;52.694;13.294;2022-10-31T13:20:23;51.67;;;34.10;;
18576;SDS011;9418;52.694;13.294;2022-10-31T13:22:56;47.73;;;33.90;;
18576;SDS011;9418;52.694;13.294;2022-10-31T13:25:31;88.67;;;38.73;;
18576;SDS011;9418;52.694;13.294;2022-10-31T13:28:05;50.30;;;34.50;;
18576;SDS011;9418;52.694;13.294;2022-10-31T13:30:46;54.93;;;33.10;;
18576;SDS011;9418;52.694;13.294;2022-10-31T13:33:15;54.57;;;34.23;;
18576;SDS011;9418;52.694;13.294;2022-10-31T13:35:46;46.87;;;32.73;;
18576;SDS011;9418;52.694;13.294;2022-10-31T13:38:20;59.53;;;36.27;;
18576;SDS011;9418;52.694;13.294;2022-10-31T13:40:53;53.53;;;36.33;;
18576;SDS011;9418;52.694;13.294;2022-10-31T13:43:27;45.47;;;31.70;;
18576;SDS011;9418;52.694;13.294;2022-10-31T13:45:58;50.20;;;34.37;;
18576;SDS011;9418;52.694;13.294;2022-10-31T13:48:33;49.30;;;33.97;;
18576;SDS011;9418;52.694;13.294;2022-10-31T13:51:06;43.10;;;31.53;;
18576;SDS011;9418;52.694;13.294;2022-10-31T13:53:44;51.90;;;32.33;;
18576;SDS011;9418;52.694;13.294;2022-10-31T13:56:22;51.83;;;32.83;;
18576;SDS011;9418;52.694;13.294;2022-10-31T13:59:02;47.37;;;33.37;;
18576;SDS011;9418;52.694;13.294;2022-10-31T14:01:51;49.60;;;32.70;;
18576;SDS011;9418;52.694;13.294;2022-10-31T14:04:22;45.10;;;30.53;;
18576;SDS011;9418;52.694;13.294;2022-10-31T14:06:55;47.20;;;30.90;;
18576;SDS011;9418;52.694;13.294;2022-10-31T14:09:28;45.80;;;30.53;;
18576;SDS011;9418;52.694;13.294;2022-10-31T14:11:58;45.00;;;32.30;;
18576;SDS011;9418;52.694;13.294;2022-10-31T14:14:29;51.57;;;30.43;;
18576;SDS011;9418;52.694;13.294;2022-10-31T14:17:00;52.40;;;29.83;;
18576;SDS011;9418;52.694;13.294;2022-10-31T14:19:27;41.27;;;30.80;;
18576;SDS011;9418;52.694;13.294;2022-10-31T14:21:54;55.57;;;31.30;;
18576;SDS011;9418;52.694;13.294;2022-10-31T14:24:32;40.63;;;28.67;;
18576;SDS011;9418;52.694;13.294;2022-10-31T14:27:01;41.43;;;29.20;;
18576;SDS011;9418;52.694;13.294;2022-10-31T14:29:31;43.37;;;30.20;;
18576;SDS011;9418;52.694;13.294;2022-10-31T14:32:00;44.90;;;28.73;;
18576;SDS011;9418;52.694;13.294;2022-10-31T14:34:36;38.40;;;27.90;;
18576;SDS011;9418;52.694;13.294;2022-10-31T14:40:26;73.13;;;29.17;;
18576;SDS011;9418;52.694;13.294;2022-10-31T14:43:04;38.63;;;26.40;;
18576;SDS011;9418;52.694;13.294;2022-10-31T14:45:47;49.73;;;28.27;;
18576;SDS011;9418;52.694;13.294;2022-10-31T14:48:24;37.43;;;28.57;;